Time;durP1;ratioP1;P1;durP2;ratioP2;P2;SDS_P1;SDS_P2;PMS_P1;PMS_P2;Temp;Humidity;BMP_temperature;BMP_pressure;BME280_temperature;BME280_humidity;BME280_pressure;Samples;Min_cycle;Max_cycle;Signal;HPM_P1;HPM_P2
2021/05/28 00:04:15;;;;;;;3.47;1.90;;;14.60;67.10;;;;;;5073680;28;20074;-47
2021/05/28 00:06:41;;;;;;;2.95;1.90;;;14.50;67.10;;;;;;5071155;28;20020;-51
2021/05/28 00:09:06;;;;;;;2.60;1.70;;;14.50;67.10;;;;;;5054421;28;20418;-46
2021/05/28 00:11:32;;;;;;;3.33;1.90;;;14.50;67.10;;;;;;5054624;28;20045;-47
2021/05/28 00:13:58;;;;;;;2.15;1.70;;;14.50;67.20;;;;;;5055421;28;20390;-49
2021/05/28 00:16:25;;;;;;;2.65;1.60;;;14.50;67.10;;;;;;5047214;28;20078;-47
2021/05/28 00:18:52;;;;;;;3.92;1.92;;;14.50;67.20;;;;;;5073556;28;20107;-48
2021/05/28 00:21:18;;;;;;;3.03;1.80;;;14.50;67.30;;;;;;5055691;28;20486;-52
2021/05/28 00:23:44;;;;;;;2.55;1.98;;;14.40;67.30;;;;;;5068163;28;20031;-52
2021/05/28 00:26:10;;;;;;;4.30;1.90;;;14.40;67.30;;;;;;5039634;28;20068;-46
2021/05/28 00:28:36;;;;;;;4.32;1.52;;;14.40;67.30;;;;;;5066265;28;20371;-47
2021/05/28 00:31:02;;;;;;;3.25;1.77;;;14.30;67.40;;;;;;5054227;28;20032;-49
2021/05/28 00:33:28;;;;;;;3.70;1.60;;;14.30;67.30;;;;;;5054073;28;20032;-47
2021/05/28 00:35:53;;;;;;;3.97;1.55;;;14.30;67.30;;;;;;5054067;28;20466;-49
2021/05/28 00:38:19;;;;;;;2.13;1.40;;;14.30;67.30;;;;;;5057476;28;20458;-47
2021/05/28 00:40:45;;;;;;;3.53;1.67;;;14.20;67.20;;;;;;5053624;28;20029;-48
2021/05/28 00:43:10;;;;;;;7.15;1.50;;;14.30;67.20;;;;;;5057405;28;20021;-48
2021/05/28 00:45:36;;;;;;;3.42;1.73;;;14.20;66.80;;;;;;5054931;28;20390;-47
2021/05/28 00:48:02;;;;;;;2.83;1.60;;;14.20;67.00;;;;;;5071672;28;20017;-47
2021/05/28 00:50:29;;;;;;;3.65;1.60;;;14.20;66.80;;;;;;5058023;28;20398;-50
2021/05/28 00:52:57;;;;;;;3.40;1.90;;;14.20;66.40;;;;;;5060225;28;20028;-49
2021/05/28 00:55:25;;;;;;;2.97;1.50;;;14.30;66.20;;;;;;5052940;28;20027;-46
2021/05/28 00:57:52;;;;;;;2.53;1.50;;;14.20;66.10;;;;;;5058600;28;20025;-53
2021/05/28 01:00:19;;;;;;;3.15;1.60;;;14.20;66.00;;;;;;5041667;28;20425;-51
2021/05/28 01:02:45;;;;;;;2.15;1.42;;;14.20;65.90;;;;;;5047871;28;20446;-48
2021/05/28 01:05:11;;;;;;;2.65;1.50;;;14.20;65.80;;;;;;5064910;28;20112;-46
2021/05/28 01:07:37;;;;;;;4.18;1.52;;;14.20;65.80;;;;;;5064826;28;20048;-53
2021/05/28 01:10:04;;;;;;;2.17;1.48;;;14.10;65.80;;;;;;5053581;28;20072;-48
2021/05/28 01:12:30;;;;;;;2.80;1.67;;;14.10;65.90;;;;;;5052832;28;20037;-50
2021/05/28 01:14:55;;;;;;;2.75;1.50;;;14.10;65.90;;;;;;5053186;28;20083;-48
2021/05/28 01:17:21;;;;;;;3.97;1.40;;;14.10;65.50;;;;;;5035778;28;20471;-48
2021/05/28 01:19:48;;;;;;;2.25;1.58;;;14.10;65.50;;;;;;5053044;28;20475;-51
2021/05/28 01:22:18;;;;;;;3.67;1.60;;;14.10;65.50;;;;;;5064625;28;20032;-53
2021/05/28 01:24:44;;;;;;;2.70;1.38;;;14.20;65.30;;;;;;5070184;28;20029;-49
2021/05/28 01:27:10;;;;;;;2.45;1.60;;;14.20;65.10;;;;;;5066914;28;20463;-47
2021/05/28 01:29:36;;;;;;;2.88;1.58;;;14.20;65.10;;;;;;5068470;28;20546;-47
2021/05/28 01:32:03;;;;;;;2.60;1.30;;;14.20;65.10;;;;;;5053870;28;20113;-45
2021/05/28 01:34:29;;;;;;;2.83;1.50;;;14.30;65.00;;;;;;5052116;28;20032;-47
2021/05/28 01:36:55;;;;;;;3.53;2.13;;;14.20;65.10;;;;;;5072431;28;20103;-51
2021/05/28 01:39:21;;;;;;;2.83;1.65;;;14.10;65.50;;;;;;5059725;28;20031;-48
2021/05/28 01:41:47;;;;;;;5.28;1.85;;;14.20;65.40;;;;;;5054335;28;20032;-49
2021/05/28 01:44:13;;;;;;;3.22;1.73;;;14.20;65.30;;;;;;5057185;28;20029;-49
2021/05/28 01:46:39;;;;;;;2.15;1.60;;;14.20;65.50;;;;;;5033950;28;20032;-50
2021/05/28 01:49:06;;;;;;;2.13;1.55;;;14.30;65.20;;;;;;5052689;28;20029;-53
2021/05/28 01:51:32;;;;;;;2.75;1.60;;;14.20;65.20;;;;;;5052111;28;20115;-47
2021/05/28 01:53:58;;;;;;;3.25;1.80;;;14.20;65.40;;;;;;5058496;28;20029;-49
2021/05/28 01:56:25;;;;;;;2.95;1.67;;;14.10;65.80;;;;;;5070784;28;20458;-45
2021/05/28 01:58:51;;;;;;;2.33;1.77;;;14.10;66.30;;;;;;5057758;28;20479;-47
2021/05/28 02:01:16;;;;;;;3.38;2.00;;;14.10;66.10;;;;;;5034324;28;20047;-48
2021/05/28 02:03:42;;;;;;;4.00;1.95;;;14.10;66.20;;;;;;5052005;28;20037;-50
2021/05/28 02:06:08;;;;;;;3.20;1.80;;;14.10;66.20;;;;;;5052279;28;20024;-45
2021/05/28 02:08:34;;;;;;;2.63;1.70;;;14.10;66.20;;;;;;5033808;28;20166;-48
2021/05/28 02:11:00;;;;;;;4.25;2.03;;;14.10;66.60;;;;;;5071610;28;20044;-51
2021/05/28 02:13:25;;;;;;;4.13;2.03;;;14.10;66.80;;;;;;5071281;28;20044;-48
2021/05/28 02:15:51;;;;;;;5.40;2.38;;;14.00;67.00;;;;;;5042517;28;20529;-47
2021/05/28 02:18:17;;;;;;;2.70;2.22;;;14.00;67.40;;;;;;5057903;28;20386;-46
2021/05/28 02:20:42;;;;;;;3.65;2.50;;;13.90;68.00;;;;;;5063477;28;20056;-49
2021/05/28 02:23:08;;;;;;;3.40;2.35;;;13.90;68.50;;;;;;5052176;28;20029;-48
2021/05/28 02:25:34;;;;;;;3.90;2.53;;;13.80;69.60;;;;;;5060976;28;20463;-50
2021/05/28 02:27:59;;;;;;;4.97;2.53;;;13.80;68.50;;;;;;5058438;28;20090;-50
2021/05/28 02:30:26;;;;;;;3.55;2.60;;;13.80;69.00;;;;;;5071295;28;20024;-43
2021/05/28 02:32:51;;;;;;;3.60;2.80;;;13.80;68.90;;;;;;5071881;28;20034;-49
2021/05/28 02:35:17;;;;;;;3.88;2.60;;;13.80;69.20;;;;;;5065276;28;20103;-49
2021/05/28 02:37:43;;;;;;;3.25;2.75;;;13.70;69.60;;;;;;5071492;28;20085;-48
2021/05/28 02:40:09;;;;;;;4.55;2.80;;;13.60;69.90;;;;;;5053926;28;20477;-52
2021/05/28 02:42:35;;;;;;;3.95;2.60;;;13.60;70.10;;;;;;5051159;28;20029;-51
2021/05/28 02:45:02;;;;;;;3.63;2.63;;;13.60;70.10;;;;;;5052028;28;20360;-46
2021/05/28 02:47:29;;;;;;;3.58;3.10;;;13.60;70.40;;;;;;5033180;28;20033;-49
2021/05/28 02:49:56;;;;;;;3.50;3.10;;;13.60;70.40;;;;;;5051629;28;20033;-50
2021/05/28 02:52:21;;;;;;;6.00;3.10;;;13.60;70.30;;;;;;5065976;28;20024;-50
2021/05/28 02:54:47;;;;;;;4.20;3.22;;;13.60;70.40;;;;;;5070374;28;20297;-47
2021/05/28 02:57:13;;;;;;;6.45;3.13;;;13.60;70.00;;;;;;5060118;28;20035;-47
2021/05/28 02:59:39;;;;;;;5.97;3.22;;;13.60;70.20;;;;;;5050695;28;20391;-48
2021/05/28 03:02:05;;;;;;;3.90;3.10;;;13.60;70.10;;;;;;5035168;28;20067;-51
2021/05/28 03:04:32;;;;;;;5.20;3.45;;;13.60;70.00;;;;;;5068895;28;20106;-49
2021/05/28 03:06:57;;;;;;;4.60;3.55;;;13.70;69.90;;;;;;5069597;28;20055;-46
2021/05/28 03:09:23;;;;;;;4.40;3.20;;;13.60;70.30;;;;;;5059708;28;20064;-48
2021/05/28 03:11:49;;;;;;;5.07;3.53;;;13.50;70.40;;;;;;5062433;28;20106;-51
2021/05/28 03:14:16;;;;;;;7.00;3.95;;;13.50;70.50;;;;;;5037279;28;20391;-52
2021/05/28 03:16:41;;;;;;;6.68;4.30;;;13.50;70.50;;;;;;5064536;28;20108;-49
2021/05/28 03:19:16;;;;;;;6.72;3.50;;;13.50;70.50;;;;;;5055655;28;20427;-52
2021/05/28 03:24:26;;;;;;;5.53;3.80;;;13.50;70.40;;;;;;5059763;28;20402;-48
2021/05/28 03:26:52;;;;;;;6.53;3.97;;;13.60;70.40;;;;;;5074459;28;20029;-51
2021/05/28 03:29:18;;;;;;;6.03;4.00;;;13.50;70.50;;;;;;5064177;28;20029;-51
2021/05/28 03:31:43;;;;;;;5.47;4.07;;;13.50;70.60;;;;;;5056409;28;20407;-46
2021/05/28 03:34:09;;;;;;;5.55;3.92;;;13.50;70.70;;;;;;5038154;28;20120;-49
2021/05/28 03:36:35;;;;;;;4.70;3.92;;;13.50;70.80;;;;;;5054151;28;20052;-47
2021/05/28 03:39:00;;;;;;;5.78;4.00;;;13.50;71.50;;;;;;5035376;28;20434;-47
2021/05/28 03:41:26;;;;;;;7.60;4.35;;;13.50;70.90;;;;;;5055151;28;20040;-47
2021/05/28 03:43:52;;;;;;;7.55;4.22;;;13.50;70.80;;;;;;5073398;28;20044;-47
2021/05/28 03:46:18;;;;;;;6.28;4.03;;;13.50;70.90;;;;;;5060333;28;20108;-50
2021/05/28 03:48:43;;;;;;;5.70;4.50;;;13.50;71.00;;;;;;5053890;28;20429;-48
2021/05/28 03:51:11;;;;;;;5.63;3.90;;;13.50;71.00;;;;;;5056034;28;20444;-50
2021/05/28 03:53:37;;;;;;;5.80;3.80;;;13.50;71.30;;;;;;5054168;28;20115;-49
2021/05/28 03:56:02;;;;;;;6.57;4.07;;;13.50;71.30;;;;;;5040980;28;20025;-49
2021/05/28 03:58:28;;;;;;;6.43;4.05;;;13.50;71.30;;;;;;5058005;28;20029;-51
2021/05/28 04:00:54;;;;;;;5.28;4.22;;;13.50;71.30;;;;;;5053969;28;20029;-45
2021/05/28 04:03:19;;;;;;;4.45;3.80;;;13.50;71.40;;;;;;5061581;28;20052;-50
2021/05/28 04:05:45;;;;;;;4.95;3.72;;;13.50;71.30;;;;;;5054652;28;20074;-49
2021/05/28 04:08:11;;;;;;;4.72;3.65;;;13.60;71.10;;;;;;5036638;28;20454;-46
2021/05/28 04:10:37;;;;;;;4.13;3.15;;;13.60;71.00;;;;;;5053358;28;20033;-45
2021/05/28 04:13:03;;;;;;;5.30;3.67;;;13.60;71.00;;;;;;5043144;28;20431;-46
2021/05/28 04:15:28;;;;;;;6.18;3.83;;;13.60;71.10;;;;;;5036595;28;20021;-47
2021/05/28 04:17:54;;;;;;;3.80;3.20;;;13.60;71.00;;;;;;5055157;28;20392;-50
2021/05/28 04:20:19;;;;;;;4.38;3.40;;;13.60;70.80;;;;;;5054322;28;20037;-47
2021/05/28 04:22:45;;;;;;;4.25;3.25;;;13.70;70.70;;;;;;5035224;28;20033;-47
2021/05/28 04:25:12;;;;;;;4.32;3.35;;;13.70;70.40;;;;;;5053889;28;20493;-48
2021/05/28 04:27:37;;;;;;;4.78;3.00;;;13.80;70.40;;;;;;5054959;28;20040;-46
2021/05/28 04:30:04;;;;;;;5.47;2.92;;;13.80;70.10;;;;;;5037283;28;20029;-47
2021/05/28 04:32:30;;;;;;;4.18;2.88;;;13.80;70.10;;;;;;5036207;28;20029;-45
2021/05/28 04:34:56;;;;;;;7.70;3.10;;;13.70;69.80;;;;;;5053793;28;20036;-51
2021/05/28 04:37:21;;;;;;;3.65;3.03;;;13.80;69.50;;;;;;5059377;28;20029;-50
2021/05/28 04:39:47;;;;;;;4.22;2.90;;;14.00;69.00;;;;;;5035290;28;20463;-47
2021/05/28 04:42:13;;;;;;;5.75;3.38;;;14.10;68.50;;;;;;5037317;28;20033;-48
2021/05/28 04:44:39;;;;;;;5.07;2.78;;;14.10;68.30;;;;;;5064668;28;20390;-47
2021/05/28 04:47:05;;;;;;;5.07;2.75;;;14.20;68.00;;;;;;5066512;28;20020;-48
2021/05/28 04:49:30;;;;;;;5.47;3.00;;;14.30;67.60;;;;;;5054363;28;20037;-49
2021/05/28 04:51:56;;;;;;;5.97;2.50;;;14.10;67.90;;;;;;5036668;28;20033;-48
2021/05/28 04:54:22;;;;;;;4.07;2.80;;;14.10;67.90;;;;;;5053322;28;20105;-48
2021/05/28 04:56:48;;;;;;;3.88;2.92;;;14.10;67.90;;;;;;5047485;28;20096;-50
2021/05/28 04:59:13;;;;;;;3.75;2.70;;;14.20;67.90;;;;;;5035360;28;20037;-47
2021/05/28 05:01:39;;;;;;;3.92;2.42;;;14.30;67.60;;;;;;5068579;28;20048;-51
2021/05/28 05:04:05;;;;;;;4.03;2.40;;;14.30;67.30;;;;;;5029191;28;20020;-50
2021/05/28 05:06:31;;;;;;;4.90;2.47;;;14.40;67.00;;;;;;5059635;28;20091;-48
2021/05/28 05:08:56;;;;;;;4.55;2.55;;;14.40;66.80;;;;;;5052603;28;20387;-48
2021/05/28 05:11:22;;;;;;;8.48;2.60;;;14.50;66.30;;;;;;5065844;28;20049;-50
2021/05/28 05:13:48;;;;;;;7.55;3.10;;;14.60;66.20;;;;;;5052375;28;20029;-48
2021/05/28 05:16:13;;;;;;;4.25;2.40;;;14.60;65.90;;;;;;5054670;28;20394;-51
2021/05/28 05:18:39;;;;;;;3.38;2.20;;;14.60;65.50;;;;;;5068427;28;20024;-47
2021/05/28 05:21:05;;;;;;;5.38;1.98;;;14.60;65.30;;;;;;5072109;28;20036;-51
2021/05/28 05:23:31;;;;;;;4.10;2.08;;;14.70;64.70;;;;;;5054427;28;20107;-52
2021/05/28 05:25:56;;;;;;;3.35;2.05;;;14.80;64.40;;;;;;5034385;28;20422;-52
2021/05/28 05:28:25;;;;;;;4.18;1.75;;;14.90;64.00;;;;;;5052938;28;20147;-48
2021/05/28 05:30:51;;;;;;;2.22;1.90;;;14.90;64.00;;;;;;5039543;28;20029;-48
2021/05/28 05:33:17;;;;;;;2.85;2.00;;;15.00;63.50;;;;;;5053836;28;20035;-48
2021/05/28 05:35:42;;;;;;;5.50;2.05;;;15.00;63.70;;;;;;5066949;28;20036;-48
2021/05/28 05:38:08;;;;;;;3.15;2.00;;;15.10;62.40;;;;;;5059773;28;20029;-49
2021/05/28 05:40:38;;;;;;;3.08;1.98;;;15.20;62.20;;;;;;5073284;28;20140;-48
2021/05/28 05:43:04;;;;;;;3.47;2.28;;;15.30;62.40;;;;;;5046308;28;20079;-47
2021/05/28 05:45:30;;;;;;;3.25;2.08;;;15.40;62.00;;;;;;5062722;28;20025;-48
2021/05/28 05:47:56;;;;;;;5.78;2.03;;;15.40;61.30;;;;;;5066867;28;20043;-50
2021/05/28 05:50:22;;;;;;;4.85;2.15;;;15.40;61.90;;;;;;5071678;28;20466;-52
2021/05/28 05:52:47;;;;;;;3.10;2.08;;;15.40;62.30;;;;;;5056804;28;20368;-53
2021/05/28 05:55:15;;;;;;;6.43;2.05;;;15.40;62.50;;;;;;5069692;28;20040;-54
2021/05/28 05:57:42;;;;;;;5.80;2.25;;;15.50;62.80;;;;;;5054365;28;20024;-52
2021/05/28 06:00:08;;;;;;;5.13;1.95;;;15.70;61.50;;;;;;5071814;28;20035;-51
2021/05/28 06:02:34;;;;;;;4.32;1.92;;;15.80;60.50;;;;;;5054059;28;20032;-54
2021/05/28 06:05:00;;;;;;;2.95;1.83;;;15.90;60.00;;;;;;5071592;28;20028;-53
2021/05/28 06:07:25;;;;;;;4.63;2.30;;;15.70;59.60;;;;;;5071894;28;20451;-52
2021/05/28 06:09:51;;;;;;;6.88;2.47;;;15.70;60.00;;;;;;5071472;28;20056;-50
2021/05/28 06:12:18;;;;;;;4.68;2.30;;;15.80;59.50;;;;;;5072234;28;20471;-51
2021/05/28 06:14:43;;;;;;;7.80;2.22;;;15.90;59.00;;;;;;5070685;28;20024;-47
2021/05/28 06:17:09;;;;;;;6.28;2.22;;;15.90;58.70;;;;;;5067799;28;20024;-49
2021/05/28 06:19:35;;;;;;;5.13;1.90;;;16.00;58.90;;;;;;5065348;28;20017;-46
2021/05/28 06:22:00;;;;;;;3.42;1.95;;;16.00;58.50;;;;;;5061251;28;20032;-50
2021/05/28 06:24:26;;;;;;;5.93;2.30;;;16.10;58.20;;;;;;5043547;28;20017;-52
2021/05/28 06:26:52;;;;;;;10.25;2.20;;;16.30;58.20;;;;;;5062554;28;20025;-50
2021/05/28 06:29:18;;;;;;;2.95;1.58;;;16.30;57.40;;;;;;5045801;28;20478;-53
2021/05/28 06:31:45;;;;;;;7.10;2.10;;;16.30;57.20;;;;;;5085841;28;20016;-49
2021/05/28 06:34:11;;;;;;;3.03;1.85;;;16.40;57.60;;;;;;5064110;28;20024;-50
2021/05/28 06:36:37;;;;;;;3.33;2.13;;;16.60;56.90;;;;;;5055215;28;20017;-57
2021/05/28 06:39:05;;;;;;;7.40;2.38;;;16.80;56.60;;;;;;5061067;28;20036;-52
2021/05/28 06:41:31;;;;;;;2.78;1.85;;;17.00;55.90;;;;;;5062137;28;20025;-54
2021/05/28 06:43:56;;;;;;;12.63;2.40;;;17.10;55.20;;;;;;5063902;28;20032;-51
2021/05/28 06:46:22;;;;;;;24.50;2.67;;;17.10;55.50;;;;;;5059621;28;20463;-54
2021/05/28 06:48:48;;;;;;;8.48;2.72;;;17.70;55.20;;;;;;5048851;28;20073;-46
2021/05/28 06:51:15;;;;;;;4.55;2.92;;;18.60;52.50;;;;;;5061177;28;20075;-50
2021/05/28 06:53:41;;;;;;;3.53;2.25;;;21.50;48.30;;;;;;5051480;28;20055;-49
2021/05/28 06:56:07;;;;;;;21.08;3.97;;;25.70;40.70;;;;;;5048229;28;20035;-53
2021/05/28 06:58:32;;;;;;;5.53;2.42;;;29.50;34.30;;;;;;5058437;28;20467;-53
2021/05/28 07:00:58;;;;;;;2.20;2.00;;;32.10;30.60;;;;;;5068492;28;20041;-51
2021/05/28 07:03:24;;;;;;;5.45;2.53;;;32.80;28.60;;;;;;5059337;28;20370;-54
2021/05/28 07:05:50;;;;;;;2.40;2.20;;;34.40;27.20;;;;;;5090259;28;20099;-49
2021/05/28 07:08:16;;;;;;;6.00;2.10;;;35.20;26.10;;;;;;5061123;28;20078;-51
2021/05/28 07:10:42;;;;;;;3.47;2.60;;;36.20;26.20;;;;;;5070191;28;20501;-52
2021/05/28 07:13:08;;;;;;;4.03;1.70;;;37.60;25.20;;;;;;5053174;28;20123;-54
2021/05/28 07:15:33;;;;;;;7.28;2.00;;;39.00;23.90;;;;;;5075709;28;20052;-55
2021/05/28 07:17:59;;;;;;;6.53;1.70;;;37.70;24.10;;;;;;5074175;28;20447;-52
2021/05/28 07:20:25;;;;;;;4.45;1.50;;;35.90;24.40;;;;;;5078859;28;20048;-53
2021/05/28 07:22:51;;;;;;;3.88;1.90;;;33.90;25.30;;;;;;5059799;28;20474;-53
2021/05/28 07:25:18;;;;;;;5.90;2.65;;;32.80;26.50;;;;;;5062474;28;20016;-50
2021/05/28 07:27:44;;;;;;;23.95;3.65;;;34.50;26.30;;;;;;5061283;28;20024;-53
2021/05/28 07:30:12;;;;;;;9.45;3.30;;;35.40;25.00;;;;;;5084112;28;20244;-52
2021/05/28 07:32:41;;;;;;;5.07;2.20;;;34.60;25.70;;;;;;5057973;28;20020;-53
2021/05/28 07:35:09;;;;;;;5.65;2.55;;;36.30;24.40;;;;;;5078203;28;20178;-57
2021/05/28 07:37:35;;;;;;;2.65;2.17;;;37.40;23.80;;;;;;5062214;28;20021;-53
2021/05/28 07:40:02;;;;;;;3.70;2.38;;;38.40;23.00;;;;;;5075802;28;20036;-56
2021/05/28 07:42:28;;;;;;;11.02;3.13;;;39.50;23.00;;;;;;5083854;28;20107;-54
2021/05/28 07:44:54;;;;;;;5.75;2.42;;;41.00;22.30;;;;;;5089291;28;20098;-54
2021/05/28 07:47:20;;;;;;;8.82;3.03;;;41.60;21.80;;;;;;5072429;28;20444;-54
2021/05/28 07:49:45;;;;;;;8.50;2.53;;;42.60;21.40;;;;;;5090456;28;20111;-55
2021/05/28 07:52:11;;;;;;;6.00;2.35;;;43.70;21.00;;;;;;5090167;28;20439;-55
2021/05/28 07:54:37;;;;;;;4.68;3.10;;;41.00;21.00;;;;;;5090595;28;20025;-52
2021/05/28 07:57:04;;;;;;;4.43;2.65;;;40.20;21.70;;;;;;5090042;28;20033;-57
2021/05/28 07:59:30;;;;;;;2.42;1.30;;;42.00;20.90;;;;;;5076111;28;20035;-51
2021/05/28 08:01:57;;;;;;;3.63;1.27;;;41.50;20.40;;;;;;5093458;28;20142;-53
2021/05/28 08:04:23;;;;;;;3.97;3.20;;;36.80;21.90;;;;;;5076357;28;20031;-58
2021/05/28 08:06:48;;;;;;;3.42;3.13;;;35.20;23.60;;;;;;5094487;28;20024;-51
2021/05/28 08:09:14;;;;;;;4.20;1.60;;;35.60;23.40;;;;;;5093350;28;20381;-52
2021/05/28 08:11:41;;;;;;;3.15;2.60;;;36.40;23.10;;;;;;5076011;28;20056;-50
2021/05/28 08:14:07;;;;;;;2.00;1.40;;;34.70;24.00;;;;;;5053093;28;20084;-53
2021/05/28 08:16:33;;;;;;;5.10;1.40;;;34.50;24.00;;;;;;5052293;28;20035;-49
2021/05/28 08:18:59;;;;;;;10.95;2.38;;;33.20;24.80;;;;;;5051786;28;20051;-51
2021/05/28 08:21:25;;;;;;;3.20;1.15;;;32.00;25.50;;;;;;5035520;28;20094;-52
2021/05/28 08:23:51;;;;;;;3.95;1.25;;;30.60;26.50;;;;;;5053948;28;20029;-54
2021/05/28 08:26:17;;;;;;;7.15;1.88;;;29.20;27.30;;;;;;5053467;28;20079;-50
2021/05/28 08:28:43;;;;;;;8.68;1.50;;;28.40;28.20;;;;;;5053866;28;20037;-51
2021/05/28 08:31:10;;;;;;;5.38;1.80;;;27.60;28.90;;;;;;5055901;28;20021;-51
2021/05/28 08:33:38;;;;;;;8.18;2.30;;;27.00;29.50;;;;;;5073692;28;20024;-53
2021/05/28 08:36:04;;;;;;;10.23;1.98;;;26.80;29.90;;;;;;5073397;28;20115;-51
2021/05/28 08:38:30;;;;;;;24.55;3.72;;;26.20;30.50;;;;;;5055684;28;20021;-52
2021/05/28 08:40:56;;;;;;;10.73;2.60;;;25.70;31.40;;;;;;5072333;28;20044;-49
2021/05/28 08:43:22;;;;;;;3.85;1.50;;;25.40;31.70;;;;;;5054978;28;20025;-51
2021/05/28 08:45:48;;;;;;;3.42;2.00;;;25.00;32.40;;;;;;5055258;28;20028;-51
2021/05/28 08:48:16;;;;;;;6.80;3.90;;;25.10;33.50;;;;;;5054818;28;20100;-48
2021/05/28 08:50:44;;;;;;;2.83;2.63;;;28.80;30.90;;;;;;5072902;28;20119;-54
2021/05/28 08:53:11;;;;;;;2.22;1.85;;;32.90;27.40;;;;;;5072096;28;20024;-55
2021/05/28 08:55:39;;;;;;;2.40;1.40;;;36.10;25.10;;;;;;5054657;28;20020;-54
2021/05/28 08:58:06;;;;;;;4.05;2.80;;;35.70;23.90;;;;;;5072241;28;20031;-55
2021/05/28 09:00:33;;;;;;;4.28;1.23;;;34.90;24.60;;;;;;5072741;28;20032;-51
2021/05/28 09:03:17;;;;;;;7.10;2.45;;;35.90;24.00;;;;;;5072375;28;20024;-54
2021/05/28 09:05:43;;;;;;;2.38;2.15;;;36.00;23.80;;;;;;5072726;28;20035;-54
2021/05/28 09:08:10;;;;;;;3.00;1.58;;;37.20;23.30;;;;;;5070932;28;20096;-54
2021/05/28 09:11:04;;;;;;;1.95;1.10;;;37.70;23.00;;;;;;5061505;28;20448;-50
2021/05/28 09:13:30;;;;;;;3.50;1.45;;;38.20;22.70;;;;;;5063429;28;20047;-51
2021/05/28 09:16:16;;;;;;;2.45;1.35;;;38.20;22.30;;;;;;5079134;28;20025;-48
2021/05/28 09:18:45;;;;;;;3.70;1.33;;;35.90;22.90;;;;;;5078507;28;20020;-51
2021/05/28 09:21:14;;;;;;;9.13;1.60;;;34.20;24.10;;;;;;5061935;28;20134;-55
2021/05/28 09:23:40;;;;;;;4.13;1.67;;;32.40;25.20;;;;;;5077820;28;20031;-50
2021/05/28 09:26:08;;;;;;;6.20;1.70;;;31.30;26.00;;;;;;5081071;28;20016;-56
2021/05/28 09:28:43;;;;;;;18.38;2.45;;;30.40;26.60;;;;;;5082111;28;20052;-52
2021/05/28 09:31:24;;;;;;;23.55;4.90;;;29.70;27.40;;;;;;5078916;28;20032;-54
2021/05/28 09:33:52;;;;;;;2.75;1.30;;;29.30;27.70;;;;;;5079953;28;20080;-49
2021/05/28 09:36:22;;;;;;;4.20;1.52;;;28.60;28.30;;;;;;5060312;28;20171;-51
2021/05/28 09:39:01;;;;;;;115.22;9.82;;;27.80;29.00;;;;;;5081814;28;20027;-51
2021/05/28 09:41:46;;;;;;;35.15;4.78;;;27.60;29.60;;;;;;5081896;28;20115;-49
2021/05/28 09:44:25;;;;;;;10.32;2.72;;;27.50;29.90;;;;;;5058581;28;20301;-47
2021/05/28 09:47:15;;;;;;;10.13;2.53;;;27.20;29.90;;;;;;5077169;28;20035;-48
2021/05/28 09:49:54;;;;;;;163.13;13.63;;;26.70;30.20;;;;;;5071415;28;20033;-52
2021/05/28 09:52:24;;;;;;;12.13;2.10;;;26.50;31.00;;;;;;5072906;28;20034;-52
2021/05/28 09:55:15;;;;;;;14.55;2.70;;;26.20;31.00;;;;;;5049851;28;20441;-54
2021/05/28 09:57:47;;;;;;;147.40;11.95;;;26.10;31.40;;;;;;5062687;28;20033;-48
2021/05/28 10:00:28;;;;;;;56.25;4.35;;;26.10;31.90;;;;;;5047252;28;20039;-55
2021/05/28 10:03:13;;;;;;;4.85;1.77;;;26.10;31.80;;;;;;5048686;28;20020;-52
2021/05/28 10:05:41;;;;;;;3.20;1.70;;;26.20;31.30;;;;;;5053338;28;20039;-50
2021/05/28 10:08:09;;;;;;;12.73;1.73;;;26.00;31.30;;;;;;5059001;28;20021;-51
2021/05/28 10:10:36;;;;;;;6.70;1.73;;;25.90;31.60;;;;;;5040380;28;20135;-51
2021/05/28 10:13:12;;;;;;;15.38;3.17;;;25.80;31.60;;;;;;5037618;28;20052;-52
2021/05/28 10:15:44;;;;;;;10.45;2.45;;;25.50;31.90;;;;;;5047759;28;20052;-52
2021/05/28 10:18:11;;;;;;;2.80;1.45;;;25.50;32.10;;;;;;5040268;28;20140;-52
2021/05/28 10:20:38;;;;;;;2.75;1.67;;;25.30;32.40;;;;;;5041941;28;20483;-52
2021/05/28 10:23:09;;;;;;;3.05;1.77;;;25.00;32.70;;;;;;5037039;28;20025;-54
2021/05/28 10:25:37;;;;;;;3.33;1.67;;;24.40;33.90;;;;;;5039339;28;20025;-51
2021/05/28 10:28:08;;;;;;;4.25;1.35;;;24.00;34.70;;;;;;5038296;28;20020;-53
2021/05/28 10:30:43;;;;;;;10.13;1.50;;;24.00;34.70;;;;;;5053707;28;20033;-50
2021/05/28 10:33:25;;;;;;;3.83;1.20;;;24.00;34.70;;;;;;5039694;28;20049;-51
2021/05/28 10:35:58;;;;;;;3.60;1.40;;;23.60;34.50;;;;;;5040114;28;20020;-55
2021/05/28 10:38:29;;;;;;;2.17;1.40;;;23.40;35.50;;;;;;5034798;28;20028;-56
2021/05/28 10:41:06;;;;;;;2.08;1.20;;;23.30;35.90;;;;;;5037272;28;20116;-52
2021/05/28 10:43:40;;;;;;;2.83;1.48;;;23.40;36.20;;;;;;5033634;28;20017;-53
2021/05/28 10:46:18;;;;;;;3.70;1.95;;;23.50;36.00;;;;;;5034611;28;20025;-53
2021/05/28 10:48:44;;;;;;;3.05;1.52;;;23.80;35.40;;;;;;5034331;28;20403;-53
2021/05/28 10:51:13;;;;;;;5.72;1.60;;;24.20;34.70;;;;;;5029214;28;21115;-50
2021/05/28 10:53:52;;;;;;;2.58;1.58;;;24.40;34.30;;;;;;5041027;28;20028;-52
2021/05/28 10:56:22;;;;;;;11.45;1.90;;;24.50;34.10;;;;;;5048264;28;20036;-53
2021/05/28 10:58:59;;;;;;;3.13;1.60;;;24.60;33.80;;;;;;5046698;28;20029;-55
2021/05/28 11:01:42;;;;;;;8.10;2.00;;;24.60;33.90;;;;;;5032491;28;20124;-54
2021/05/28 11:04:11;;;;;;;4.80;1.58;;;24.30;34.30;;;;;;5039578;28;20021;-51
2021/05/28 11:06:59;;;;;;;3.15;1.80;;;23.80;35.10;;;;;;5038530;28;20472;-53
2021/05/28 11:09:39;;;;;;;2.33;1.52;;;23.40;36.00;;;;;;5037733;28;20022;-52
2021/05/28 11:12:07;;;;;;;7.40;2.00;;;23.10;37.30;;;;;;5042408;28;20119;-54
2021/05/28 11:14:38;;;;;;;7.65;2.20;;;22.70;38.30;;;;;;5040389;28;20036;-50
2021/05/28 11:17:03;;;;;;;6.13;2.40;;;22.70;38.90;;;;;;5040828;28;20056;-53
2021/05/28 11:19:41;;;;;;;5.72;2.00;;;22.60;39.60;;;;;;5038176;28;20127;-47
2021/05/28 11:22:26;;;;;;;8.85;2.53;;;22.40;40.40;;;;;;5036720;28;20032;-50
2021/05/28 11:24:52;;;;;;;3.50;2.10;;;22.60;40.40;;;;;;5038564;28;20048;-51
2021/05/28 11:27:22;;;;;;;5.18;2.03;;;22.80;39.70;;;;;;5034729;28;20107;-53
2021/05/28 11:30:08;;;;;;;5.47;3.22;;;22.90;39.50;;;;;;5034674;28;20155;-52
2021/05/28 11:32:42;;;;;;;4.45;2.20;;;23.10;39.70;;;;;;5042209;28;20116;-54
2021/05/28 11:35:15;;;;;;;5.18;2.13;;;23.30;39.30;;;;;;5050571;28;20031;-52
2021/05/28 11:37:53;;;;;;;5.15;2.05;;;23.20;38.50;;;;;;5051516;28;20029;-51
2021/05/28 11:40:24;;;;;;;204.80;16.55;;;22.90;38.70;;;;;;5053728;28;20056;-50
2021/05/28 11:42:51;;;;;;;161.88;12.85;;;22.70;39.20;;;;;;5042247;28;20021;-52
2021/05/28 11:45:20;;;;;;;144.23;10.35;;;22.50;39.30;;;;;;5050608;28;20175;-50
2021/05/28 11:47:47;;;;;;;45.53;5.50;;;22.50;39.50;;;;;;5053175;28;20101;-47
2021/05/28 11:50:18;;;;;;;88.78;9.82;;;22.30;39.80;;;;;;5051879;28;20029;-50
2021/05/28 11:53:02;;;;;;;70.18;6.93;;;22.10;40.40;;;;;;5053310;28;20021;-53
2021/05/28 11:55:31;;;;;;;57.22;7.75;;;22.10;40.70;;;;;;5052236;28;20111;-54
2021/05/28 11:58:03;;;;;;;49.35;7.15;;;22.30;40.30;;;;;;5054097;28;20057;-50
2021/05/28 12:00:30;;;;;;;24.98;4.90;;;22.30;40.00;;;;;;5053428;28;20040;-52
2021/05/28 12:02:58;;;;;;;26.63;3.97;;;22.40;39.80;;;;;;5052141;28;20056;-49
2021/05/28 12:05:26;;;;;;;15.32;2.30;;;22.20;39.90;;;;;;5052761;28;20251;-49
2021/05/28 12:07:55;;;;;;;18.75;2.72;;;22.10;40.20;;;;;;5053402;28;20025;-51
2021/05/28 12:10:25;;;;;;;9.48;2.13;;;22.00;40.60;;;;;;5051521;28;20131;-47
2021/05/28 12:12:54;;;;;;;9.70;3.10;;;22.00;40.70;;;;;;5057618;28;20126;-52
2021/05/28 12:15:41;;;;;;;8.82;4.13;;;22.00;40.80;;;;;;5053781;28;20021;-52
2021/05/28 12:18:27;;;;;;;8.27;3.00;;;22.20;40.60;;;;;;5052556;28;20037;-52
2021/05/28 12:20:54;;;;;;;8.63;2.65;;;22.30;40.60;;;;;;5053020;28;20149;-55
2021/05/28 12:23:27;;;;;;;5.50;2.22;;;22.60;40.20;;;;;;5052383;28;20474;-49
2021/05/28 12:26:03;;;;;;;20.25;3.63;;;22.60;40.00;;;;;;5053070;28;20029;-53
2021/05/28 12:28:33;;;;;;;7.75;3.40;;;22.40;40.20;;;;;;5051040;28;20061;-57
2021/05/28 12:31:01;;;;;;;18.25;3.47;;;22.30;40.30;;;;;;5052633;28;20029;-52
2021/05/28 12:33:33;;;;;;;4.78;1.83;;;22.20;40.60;;;;;;5052308;28;20047;-49
2021/05/28 12:36:11;;;;;;;15.82;4.07;;;22.00;39.90;;;;;;5053759;28;20451;-50
2021/05/28 12:38:44;;;;;;;10.93;2.80;;;21.90;40.10;;;;;;5053257;28;20025;-52
2021/05/28 12:41:13;;;;;;;7.68;2.13;;;21.90;40.20;;;;;;5051115;28;20032;-53
2021/05/28 12:43:42;;;;;;;5.72;2.50;;;21.90;40.80;;;;;;5053055;28;20156;-53
2021/05/28 12:46:23;;;;;;;8.35;2.95;;;21.60;41.70;;;;;;5050941;28;20025;-54
2021/05/28 12:48:55;;;;;;;13.10;3.70;;;21.70;42.30;;;;;;5053112;28;20017;-53
2021/05/28 12:51:35;;;;;;;8.60;2.35;;;21.70;42.50;;;;;;5052069;28;20032;-52
2021/05/28 12:54:18;;;;;;;9.27;2.30;;;22.10;42.20;;;;;;5061451;28;20069;-53
2021/05/28 12:56:45;;;;;;;6.28;2.25;;;22.60;41.00;;;;;;5063726;28;20017;-51